EmailTwitter


Observations de surface / France / LFBO (07630)

Régions: Québec | Canada | États-Unis | Europe | France | UK | Ailleurs
Station
Affichage
Infos & localisation pour LFBO (07630) | Aide pour décoder les METARs

Observations prises le 2017-09-26 à 16H00 UTC à TOULOUSE/BLAGNAC, FR (LFBO)

Etat du ciel: quelques nuages.

Température: 21.0 Celsius

Point de rosée: 9.0 Celsius

Humidité relative: 46%

Vents: Nord à 11 km/h ou 6 noeuds.

Pression au niveau moyen de la mer: 102.10 kilopascals.

Visibilité horizontale: 6.21 milles terrestres ou 9.94 kilomètres.

Observation METAR:

LFBO 261600Z AUTO 35006KT 310V040 9999 FEW011 21/09 Q1021 NOSIG=